Time;durP1;ratioP1;P1;durP2;ratioP2;P2;SDS_P1;SDS_P2;PMS_P1;PMS_P2;Temp;Humidity;BMP_temperature;BMP_pressure;BME280_temperature;BME280_humidity;BME280_pressure;Samples;Min_cycle;Max_cycle;Signal;HPM_P1;HPM_P2
2022/01/31 00:00:13;;;;;;;25.30;8.40;;;3.60;99.90;;;;;;5084815;28;20047;-48
2022/01/31 00:02:44;;;;;;;23.65;6.28;;;3.60;99.90;;;;;;5084760;28;20063;-51
2022/01/31 00:05:10;;;;;;;22.15;6.15;;;3.60;99.90;;;;;;5095055;28;20079;-51
2022/01/31 00:07:36;;;;;;;28.58;7.22;;;3.70;99.90;;;;;;5079329;28;20055;-47
2022/01/31 00:10:07;;;;;;;19.42;6.00;;;3.60;99.90;;;;;;5087805;28;20135;-49
2022/01/31 00:12:43;;;;;;;24.23;6.28;;;3.70;99.90;;;;;;5084324;28;20075;-50
2022/01/31 00:15:11;;;;;;;21.35;6.65;;;3.70;99.90;;;;;;5085673;28;20126;-49
2022/01/31 00:17:36;;;;;;;27.25;8.10;;;3.70;99.90;;;;;;5086862;28;20064;-49
2022/01/31 00:20:03;;;;;;;24.08;7.97;;;3.70;99.90;;;;;;5087765;28;20474;-47
2022/01/31 00:22:29;;;;;;;26.60;8.07;;;3.70;99.90;;;;;;5091262;28;20043;-48
2022/01/31 00:24:54;;;;;;;24.65;8.93;;;3.70;99.90;;;;;;5090855;28;20474;-48
2022/01/31 00:27:20;;;;;;;23.95;8.82;;;3.70;99.90;;;;;;5093155;28;20547;-48
2022/01/31 00:29:46;;;;;;;30.15;9.52;;;3.70;99.90;;;;;;5087316;28;20544;-49
2022/01/31 00:32:11;;;;;;;22.48;9.35;;;3.70;99.90;;;;;;5097478;28;20065;-50
2022/01/31 00:34:37;;;;;;;28.80;10.38;;;3.70;99.90;;;;;;5080974;28;20082;-48
2022/01/31 00:37:03;;;;;;;24.90;10.32;;;3.70;99.90;;;;;;5090009;28;20070;-49
2022/01/31 00:39:33;;;;;;;25.52;10.07;;;3.70;99.90;;;;;;5088520;28;20043;-48
2022/01/31 00:41:59;;;;;;;24.77;10.75;;;3.70;99.90;;;;;;5077058;28;20039;-47
2022/01/31 00:44:30;;;;;;;31.30;10.45;;;3.70;99.90;;;;;;5089695;28;20052;-48
2022/01/31 00:47:03;;;;;;;28.85;10.32;;;3.70;99.90;;;;;;5067276;28;20632;-48
2022/01/31 00:51:59;;;;;;;34.25;11.93;;;3.70;99.90;;;;;;5092219;28;20108;-47
2022/01/31 00:54:29;;;;;;;32.95;11.90;;;3.70;99.90;;;;;;5070082;28;20093;-48
2022/01/31 00:56:55;;;;;;;36.58;11.88;;;3.60;99.90;;;;;;5089902;28;20090;-48
2022/01/31 00:59:21;;;;;;;27.88;11.35;;;3.60;99.90;;;;;;5096344;28;20055;-47
2022/01/31 01:01:48;;;;;;;24.30;11.93;;;3.60;99.90;;;;;;5089038;28;20048;-49
2022/01/31 01:04:14;;;;;;;39.78;15.35;;;3.60;99.90;;;;;;5095720;28;20092;-48
2022/01/31 01:06:41;;;;;;;34.58;14.38;;;3.60;99.90;;;;;;5063308;28;20055;-48
2022/01/31 01:09:07;;;;;;;37.10;14.70;;;3.50;99.90;;;;;;5092134;28;20048;-51
2022/01/31 01:11:34;;;;;;;29.95;14.32;;;3.50;99.90;;;;;;5073785;28;20048;-48
2022/01/31 01:14:00;;;;;;;30.30;15.15;;;3.50;99.90;;;;;;5098733;28;20462;-48
2022/01/31 01:16:25;;;;;;;39.88;16.67;;;3.50;99.90;;;;;;5101681;28;20062;-48
2022/01/31 01:18:51;;;;;;;36.05;17.65;;;3.50;99.90;;;;;;5068535;28;20056;-48
2022/01/31 01:21:17;;;;;;;43.17;18.92;;;3.50;99.90;;;;;;5100192;28;20586;-48
2022/01/31 01:23:43;;;;;;;38.80;18.10;;;3.50;99.90;;;;;;5097773;28;20121;-49
2022/01/31 01:26:09;;;;;;;38.17;18.13;;;3.50;99.90;;;;;;5092517;28;20040;-48
2022/01/31 01:28:35;;;;;;;34.42;18.67;;;3.40;99.90;;;;;;5091247;28;20044;-48
2022/01/31 01:31:01;;;;;;;28.30;17.55;;;3.40;99.90;;;;;;5091472;28;20063;-48
2022/01/31 01:33:27;;;;;;;25.65;16.35;;;3.40;99.90;;;;;;5080480;28;20063;-48
2022/01/31 01:35:54;;;;;;;29.80;16.73;;;3.40;99.90;;;;;;5090659;28;20052;-48
2022/01/31 01:38:28;;;;;;;25.55;14.20;;;3.40;99.90;;;;;;5096458;28;20061;-49
2022/01/31 01:40:59;;;;;;;23.77;14.23;;;3.40;99.90;;;;;;5077330;28;20164;-48
2022/01/31 01:43:25;;;;;;;24.42;16.13;;;3.40;99.90;;;;;;5100815;28;20055;-48
2022/01/31 01:45:53;;;;;;;24.90;15.60;;;3.40;99.90;;;;;;5099928;28;20085;-50
2022/01/31 01:48:19;;;;;;;23.60;15.27;;;3.40;99.90;;;;;;5095369;28;20256;-48
2022/01/31 01:50:45;;;;;;;20.80;15.23;;;3.40;99.90;;;;;;5091936;28;20048;-48
2022/01/31 01:53:14;;;;;;;29.98;16.35;;;3.40;99.90;;;;;;5075156;28;20052;-48
2022/01/31 01:55:43;;;;;;;22.10;15.20;;;3.40;99.90;;;;;;5082555;28;20044;-48
2022/01/31 01:58:15;;;;;;;26.13;16.27;;;3.50;99.90;;;;;;5083219;28;20144;-49
2022/01/31 02:00:53;;;;;;;26.17;14.57;;;3.50;99.90;;;;;;5085068;28;20055;-47
2022/01/31 02:03:20;;;;;;;23.27;14.32;;;3.50;99.90;;;;;;5092540;28;20039;-47
2022/01/31 02:05:47;;;;;;;23.42;13.15;;;3.60;99.90;;;;;;5099437;28;20051;-47
2022/01/31 02:08:14;;;;;;;25.92;14.02;;;3.60;99.90;;;;;;5082865;28;20052;-47
2022/01/31 02:10:41;;;;;;;20.50;12.18;;;3.60;99.90;;;;;;5096567;28;20127;-48
2022/01/31 02:13:09;;;;;;;16.05;11.40;;;3.60;99.90;;;;;;5097587;28;20547;-48
2022/01/31 02:15:35;;;;;;;25.33;12.13;;;3.60;99.90;;;;;;5095901;28;20124;-47
2022/01/31 02:18:01;;;;;;;21.58;13.45;;;3.60;99.90;;;;;;5063914;28;20136;-48
2022/01/31 02:20:27;;;;;;;19.58;11.05;;;3.70;99.90;;;;;;5088523;28;20098;-47
2022/01/31 02:22:54;;;;;;;20.05;11.30;;;3.70;99.90;;;;;;5071955;28;20131;-47
2022/01/31 02:25:20;;;;;;;22.35;11.63;;;3.70;99.90;;;;;;5070829;28;20118;-47
2022/01/31 02:27:46;;;;;;;25.08;11.25;;;3.70;99.90;;;;;;5087715;28;20585;-47
2022/01/31 02:30:15;;;;;;;22.90;10.65;;;3.80;99.90;;;;;;5073914;28;20047;-49
2022/01/31 02:32:41;;;;;;;22.77;10.70;;;3.80;99.90;;;;;;5104113;28;20043;-54
2022/01/31 02:35:08;;;;;;;20.70;10.68;;;3.90;99.90;;;;;;5072057;28;20067;-48
2022/01/31 02:37:34;;;;;;;25.48;11.10;;;3.90;99.90;;;;;;5080317;28;20051;-47
2022/01/31 02:40:00;;;;;;;19.13;9.95;;;3.90;99.90;;;;;;5083513;28;20048;-48
2022/01/31 02:42:27;;;;;;;23.08;10.38;;;4.00;99.90;;;;;;5083610;28;20051;-49
2022/01/31 02:44:52;;;;;;;26.33;10.20;;;4.10;99.90;;;;;;5076492;28;20085;-49
2022/01/31 02:47:25;;;;;;;27.95;9.40;;;4.10;99.90;;;;;;5094398;28;20047;-48
2022/01/31 02:52:20;;;;;;;26.55;9.52;;;4.20;99.90;;;;;;5095032;28;20428;-48
2022/01/31 02:54:46;;;;;;;28.85;8.35;;;4.30;99.90;;;;;;5066276;28;20048;-48
2022/01/31 02:57:12;;;;;;;32.67;9.48;;;4.40;99.90;;;;;;5088833;28;20581;-47
2022/01/31 02:59:38;;;;;;;37.95;8.10;;;4.50;99.90;;;;;;5088277;28;20040;-50
2022/01/31 03:02:05;;;;;;;30.33;8.73;;;4.60;99.90;;;;;;5067381;28;20547;-48
2022/01/31 03:04:31;;;;;;;29.63;7.45;;;4.90;99.90;;;;;;5081288;28;20071;-48
2022/01/31 03:06:57;;;;;;;44.67;9.20;;;4.90;99.90;;;;;;5070512;28;20237;-48
2022/01/31 03:09:23;;;;;;;32.70;8.02;;;5.10;99.90;;;;;;5088843;28;20036;-48
2022/01/31 03:11:49;;;;;;;39.33;7.40;;;5.10;99.90;;;;;;5097600;28;20043;-48
2022/01/31 03:14:19;;;;;;;34.75;7.05;;;5.10;99.90;;;;;;5088837;28;20044;-47
2022/01/31 03:16:48;;;;;;;27.08;5.95;;;5.10;99.90;;;;;;5090283;28;20058;-47
2022/01/31 03:19:16;;;;;;;31.65;6.72;;;5.20;99.90;;;;;;5094776;28;20058;-48
2022/01/31 03:21:43;;;;;;;32.95;6.13;;;5.20;99.90;;;;;;5090459;28;20461;-48
2022/01/31 03:24:10;;;;;;;31.05;6.88;;;5.30;99.90;;;;;;5091471;28;20096;-48
2022/01/31 03:26:38;;;;;;;38.08;7.20;;;5.20;99.90;;;;;;5090232;28;20059;-47
2022/01/31 03:29:04;;;;;;;29.02;6.22;;;5.30;99.90;;;;;;5086407;28;20055;-49
2022/01/31 03:31:30;;;;;;;36.08;6.65;;;5.30;99.90;;;;;;5096573;28;20044;-48
2022/01/31 03:33:57;;;;;;;27.88;5.65;;;5.20;99.90;;;;;;5103055;28;20135;-48
2022/01/31 03:36:23;;;;;;;24.75;5.13;;;5.30;99.90;;;;;;5100012;28;20572;-48
2022/01/31 03:38:49;;;;;;;29.40;5.40;;;5.20;99.90;;;;;;5096733;28;20048;-48
2022/01/31 03:41:19;;;;;;;29.65;5.68;;;5.30;99.90;;;;;;5092367;28;20728;-51
2022/01/31 03:43:44;;;;;;;22.80;5.63;;;5.30;99.90;;;;;;5098058;28;20036;-47
2022/01/31 03:46:10;;;;;;;31.58;6.50;;;5.30;99.90;;;;;;5093762;28;20071;-47
2022/01/31 03:48:37;;;;;;;24.35;5.47;;;5.30;99.90;;;;;;5090495;28;20478;-48
2022/01/31 03:51:04;;;;;;;27.80;5.65;;;5.30;99.90;;;;;;5094749;28;20470;-48
2022/01/31 03:53:30;;;;;;;28.05;5.38;;;5.30;99.90;;;;;;5094883;28;20048;-48
2022/01/31 03:55:56;;;;;;;26.85;5.00;;;5.30;99.90;;;;;;5093987;28;20090;-49
2022/01/31 03:58:22;;;;;;;31.08;4.95;;;5.30;99.90;;;;;;5097177;28;20047;-48
2022/01/31 04:00:48;;;;;;;29.05;5.50;;;5.30;99.90;;;;;;5094482;28;20121;-48
2022/01/31 04:03:15;;;;;;;17.60;4.15;;;5.30;99.90;;;;;;5095990;28;20487;-47
2022/01/31 04:05:41;;;;;;;25.10;4.65;;;5.30;99.90;;;;;;5084882;28;20094;-50
2022/01/31 04:08:07;;;;;;;25.15;6.13;;;5.30;99.90;;;;;;5095823;28;20083;-48
2022/01/31 04:10:34;;;;;;;24.48;4.22;;;5.30;99.90;;;;;;5092026;28;20489;-48
2022/01/31 04:13:00;;;;;;;30.10;4.82;;;5.30;99.90;;;;;;5100414;28;20108;-48
2022/01/31 04:15:26;;;;;;;21.77;3.80;;;5.30;99.90;;;;;;5084157;28;20048;-49
2022/01/31 04:17:51;;;;;;;26.08;4.90;;;5.30;99.90;;;;;;5082247;28;20055;-48
2022/01/31 04:20:18;;;;;;;26.75;4.47;;;5.20;99.90;;;;;;5092796;28;20044;-49
2022/01/31 04:22:56;;;;;;;24.13;4.22;;;5.20;99.90;;;;;;5102242;28;20374;-51
2022/01/31 04:25:42;;;;;;;25.65;4.75;;;5.20;99.90;;;;;;5082251;28;20050;-49
2022/01/31 04:28:21;;;;;;;25.25;4.35;;;5.10;99.90;;;;;;5066286;28;20578;-48
2022/01/31 04:30:54;;;;;;;24.00;4.10;;;5.20;99.90;;;;;;5095455;28;20438;-48
2022/01/31 04:33:21;;;;;;;30.75;5.80;;;5.20;99.90;;;;;;5069589;28;20063;-50
2022/01/31 04:35:47;;;;;;;30.40;4.97;;;5.10;99.90;;;;;;5085386;28;20055;-49
2022/01/31 04:38:13;;;;;;;28.67;4.40;;;5.10;99.90;;;;;;5076705;28;20040;-49
2022/01/31 04:40:39;;;;;;;30.63;6.35;;;5.20;99.90;;;;;;5093918;28;20055;-48
2022/01/31 04:43:05;;;;;;;28.50;5.05;;;5.10;99.90;;;;;;5096527;28;20047;-51
2022/01/31 04:45:30;;;;;;;31.63;5.22;;;5.10;99.90;;;;;;5100173;28;20093;-47
2022/01/31 04:47:56;;;;;;;28.98;4.85;;;5.20;99.90;;;;;;5094972;28;20198;-48
2022/01/31 04:50:22;;;;;;;25.33;4.82;;;5.10;99.90;;;;;;5084152;28;20122;-49
2022/01/31 04:52:48;;;;;;;25.90;5.03;;;5.10;99.90;;;;;;5087972;28;20052;-48
2022/01/31 04:55:14;;;;;;;19.60;3.10;;;5.20;99.90;;;;;;5099861;28;20383;-47
2022/01/31 04:57:42;;;;;;;9.45;1.58;;;5.10;99.90;;;;;;5088670;28;20050;-48
2022/01/31 05:00:09;;;;;;;8.75;1.60;;;4.90;99.90;;;;;;5065715;28;20056;-48
2022/01/31 05:02:35;;;;;;;6.65;1.40;;;4.80;99.90;;;;;;5082808;28;20473;-48
2022/01/31 05:05:04;;;;;;;5.90;1.05;;;4.60;99.90;;;;;;5084558;28;20064;-48
2022/01/31 05:07:30;;;;;;;5.30;0.85;;;4.50;99.90;;;;;;5083881;28;20117;-50
2022/01/31 05:09:56;;;;;;;4.32;1.05;;;4.50;99.90;;;;;;5082044;28;20182;-49
2022/01/31 05:12:24;;;;;;;8.30;0.93;;;4.50;99.90;;;;;;5091556;28;20039;-48
2022/01/31 05:14:50;;;;;;;11.57;1.60;;;4.50;99.90;;;;;;5063134;28;20517;-47
2022/01/31 05:17:15;;;;;;;12.30;2.10;;;4.50;99.90;;;;;;5085786;28;20047;-47
2022/01/31 05:19:41;;;;;;;15.40;2.40;;;4.50;99.90;;;;;;5099798;28;20150;-49
2022/01/31 05:22:07;;;;;;;10.32;1.52;;;4.50;99.90;;;;;;5096921;28;20134;-47
2022/01/31 05:24:33;;;;;;;11.43;1.88;;;4.40;99.90;;;;;;5096248;28;20389;-48
2022/01/31 05:26:58;;;;;;;11.40;1.65;;;4.50;99.90;;;;;;5076010;28;20055;-48
2022/01/31 05:29:24;;;;;;;13.70;2.58;;;4.40;99.90;;;;;;5098496;28;20445;-47
2022/01/31 05:31:52;;;;;;;16.55;2.28;;;4.50;99.90;;;;;;5095323;28;20122;-48
2022/01/31 05:34:18;;;;;;;19.33;2.78;;;4.50;99.90;;;;;;5089735;28;20141;-48
2022/01/31 05:36:44;;;;;;;13.30;2.88;;;4.50;99.90;;;;;;5095598;28;20047;-48
2022/01/31 05:39:10;;;;;;;21.35;2.92;;;4.50;99.90;;;;;;5095959;28;20516;-47
2022/01/31 05:41:36;;;;;;;21.35;3.08;;;4.50;99.90;;;;;;5087460;28;20947;-47
2022/01/31 05:44:02;;;;;;;28.33;3.03;;;4.60;99.90;;;;;;5087096;28;20040;-47
2022/01/31 05:46:27;;;;;;;20.42;3.55;;;4.60;99.90;;;;;;5081031;28;20516;-48
2022/01/31 05:48:53;;;;;;;23.55;3.90;;;4.60;99.90;;;;;;5073768;28;20721;-47
2022/01/31 05:51:22;;;;;;;18.73;4.40;;;4.60;99.90;;;;;;5066597;28;20079;-47
2022/01/31 05:53:50;;;;;;;21.50;3.53;;;4.60;99.90;;;;;;5070251;28;20048;-47
2022/01/31 05:56:17;;;;;;;24.38;3.80;;;4.70;99.90;;;;;;5075092;28;20064;-48
2022/01/31 05:58:44;;;;;;;21.33;3.67;;;4.80;99.90;;;;;;5068072;28;20076;-51
2022/01/31 06:01:10;;;;;;;19.50;3.10;;;4.70;99.90;;;;;;5074120;28;20797;-50
2022/01/31 06:03:37;;;;;;;29.75;3.90;;;4.80;99.90;;;;;;5049414;28;20040;-48
2022/01/31 06:06:03;;;;;;;21.30;3.40;;;4.80;99.90;;;;;;5054371;28;20355;-47
2022/01/31 06:08:29;;;;;;;21.77;2.75;;;4.90;99.90;;;;;;5070468;28;20545;-47
2022/01/31 06:10:55;;;;;;;31.45;4.65;;;4.90;99.90;;;;;;5049364;28;20155;-48
2022/01/31 06:13:24;;;;;;;26.15;3.67;;;4.90;99.90;;;;;;5082481;28;20109;-47
2022/01/31 06:15:51;;;;;;;25.73;4.00;;;4.90;99.90;;;;;;5071877;28;20067;-47
2022/01/31 06:18:18;;;;;;;29.90;4.38;;;4.90;99.90;;;;;;5068648;28;20135;-47
2022/01/31 06:20:44;;;;;;;32.10;4.35;;;4.90;99.90;;;;;;5068184;28;20044;-48
2022/01/31 06:23:11;;;;;;;23.25;2.97;;;4.90;99.90;;;;;;5075529;28;20052;-48
2022/01/31 06:25:43;;;;;;;27.23;3.83;;;4.90;99.90;;;;;;5052932;28;20116;-49
2022/01/31 06:28:09;;;;;;;19.45;3.50;;;4.90;99.90;;;;;;5055917;28;20040;-49
2022/01/31 06:30:36;;;;;;;18.25;2.70;;;4.90;99.90;;;;;;5079307;28;20097;-48
2022/01/31 06:33:02;;;;;;;17.30;2.80;;;4.90;99.90;;;;;;5074852;28;20125;-48
2022/01/31 06:35:28;;;;;;;20.02;4.15;;;4.90;99.90;;;;;;5078049;28;20116;-48
2022/01/31 06:37:54;;;;;;;13.27;3.25;;;4.90;99.90;;;;;;5065942;28;20051;-48
2022/01/31 06:40:20;;;;;;;22.27;4.13;;;4.80;99.90;;;;;;5080936;28;20457;-50
2022/01/31 06:42:45;;;;;;;18.63;4.05;;;4.80;99.90;;;;;;5070457;28;20055;-50
2022/01/31 06:45:11;;;;;;;19.35;3.35;;;4.70;99.90;;;;;;5068740;28;20048;-48
2022/01/31 06:47:38;;;;;;;22.73;4.18;;;4.80;99.90;;;;;;5063118;28;20511;-47
2022/01/31 06:50:06;;;;;;;15.90;2.80;;;4.80;99.90;;;;;;5066154;28;20052;-48
2022/01/31 06:52:34;;;;;;;22.67;2.83;;;4.80;99.90;;;;;;5071054;28;20053;-48
2022/01/31 06:55:04;;;;;;;24.42;4.03;;;4.80;99.90;;;;;;5070142;28;20122;-50
2022/01/31 06:57:33;;;;;;;17.48;3.75;;;4.80;99.90;;;;;;5075150;28;20200;-51
2022/01/31 07:00:08;;;;;;;22.17;6.30;;;4.80;99.90;;;;;;5051567;28;20061;-48
2022/01/31 07:02:34;;;;;;;27.40;4.25;;;4.80;99.90;;;;;;5060896;28;20048;-48
2022/01/31 07:05:02;;;;;;;27.15;4.10;;;4.80;99.90;;;;;;5057879;28;20056;-47
2022/01/31 07:07:29;;;;;;;23.45;4.35;;;4.90;99.90;;;;;;5073558;28;20842;-51
2022/01/31 07:09:55;;;;;;;25.33;5.00;;;4.90;99.90;;;;;;5065738;28;20151;-48
2022/01/31 07:12:28;;;;;;;26.50;4.43;;;4.90;99.90;;;;;;5066941;28;20048;-50
2022/01/31 07:14:54;;;;;;;23.08;4.00;;;5.00;99.90;;;;;;5062841;28;20533;-49
2022/01/31 07:17:20;;;;;;;22.08;5.60;;;4.90;99.90;;;;;;5063792;28;20040;-48
2022/01/31 07:19:46;;;;;;;24.33;4.03;;;5.00;99.90;;;;;;5064869;28;20084;-49
2022/01/31 07:22:14;;;;;;;26.95;4.88;;;5.00;99.90;;;;;;5074310;28;20039;-47
2022/01/31 07:27:06;;;;;;;22.77;3.50;;;5.00;99.90;;;;;;5044849;28;20503;-48
2022/01/31 07:29:32;;;;;;;27.98;3.67;;;5.00;99.90;;;;;;5063400;28;20431;-48
2022/01/31 07:31:59;;;;;;;35.67;5.20;;;5.10;99.90;;;;;;5077795;28;20066;-48
2022/01/31 07:34:25;;;;;;;28.58;5.05;;;5.10;99.90;;;;;;5080129;28;20668;-48
2022/01/31 07:36:52;;;;;;;30.73;6.20;;;5.10;99.90;;;;;;5069885;28;20052;-47
2022/01/31 07:39:18;;;;;;;34.85;5.07;;;5.10;99.90;;;;;;5059761;28;20054;-47
2022/01/31 07:41:46;;;;;;;35.15;5.97;;;5.20;99.90;;;;;;5069476;28;20501;-48
2022/01/31 07:44:12;;;;;;;38.40;6.50;;;5.20;99.90;;;;;;5080237;28;20481;-48
2022/01/31 07:46:38;;;;;;;35.65;5.57;;;5.20;99.90;;;;;;5043378;28;20130;-49
2022/01/31 07:49:05;;;;;;;44.92;6.55;;;5.20;99.90;;;;;;5073679;28;20401;-50
2022/01/31 07:51:40;;;;;;;34.30;5.97;;;5.30;99.90;;;;;;5073917;28;20097;-50
2022/01/31 07:54:06;;;;;;;28.98;6.32;;;5.30;99.90;;;;;;5072355;28;20101;-48
2022/01/31 07:56:33;;;;;;;39.55;5.95;;;5.40;99.90;;;;;;5054182;28;20063;-48
2022/01/31 07:58:58;;;;;;;34.72;5.55;;;5.40;99.90;;;;;;5052023;28;20393;-49
2022/01/31 08:01:26;;;;;;;38.40;4.97;;;5.40;99.90;;;;;;5073609;28;20094;-48
2022/01/31 08:03:53;;;;;;;25.70;3.85;;;5.40;99.90;;;;;;5018282;28;20080;-49
2022/01/31 08:06:19;;;;;;;19.45;3.28;;;5.50;99.90;;;;;;5051036;28;20094;-48
2022/01/31 08:08:44;;;;;;;20.73;3.10;;;5.50;99.90;;;;;;5072251;28;20048;-48
2022/01/31 08:11:10;;;;;;;18.05;3.47;;;5.60;99.90;;;;;;5072692;28;20513;-48
2022/01/31 08:13:37;;;;;;;23.98;3.90;;;5.60;99.90;;;;;;5075285;28;20094;-49
2022/01/31 08:16:09;;;;;;;21.63;4.15;;;5.60;99.90;;;;;;5055770;28;20059;-50
2022/01/31 08:18:44;;;;;;;23.80;4.30;;;5.60;99.90;;;;;;5074562;28;20044;-52
2022/01/31 08:21:13;;;;;;;24.65;4.53;;;5.60;99.90;;;;;;5079560;28;20047;-49
2022/01/31 08:23:39;;;;;;;24.60;4.80;;;5.50;99.90;;;;;;5077893;28;20047;-50
2022/01/31 08:26:10;;;;;;;26.30;3.60;;;5.60;99.90;;;;;;5060700;28;20089;-48
2022/01/31 08:28:57;;;;;;;18.60;3.10;;;5.60;99.90;;;;;;5071732;28;20032;-48
2022/01/31 08:31:29;;;;;;;21.50;2.55;;;5.60;99.90;;;;;;5070548;28;20051;-49
2022/01/31 08:36:23;;;;;;;18.42;3.22;;;5.60;99.90;;;;;;5070271;28;20533;-49
2022/01/31 08:38:50;;;;;;;22.92;4.25;;;5.70;99.90;;;;;;5054534;28;20072;-49
2022/01/31 08:41:17;;;;;;;20.27;2.92;;;5.70;99.90;;;;;;5071880;28;20044;-49
2022/01/31 08:43:44;;;;;;;16.52;2.67;;;5.70;99.90;;;;;;5071884;28;20066;-47
2022/01/31 08:46:13;;;;;;;21.02;3.00;;;5.70;99.90;;;;;;5075197;28;20541;-51
2022/01/31 08:48:40;;;;;;;19.52;3.00;;;5.70;99.90;;;;;;5073009;28;20087;-48
2022/01/31 08:51:09;;;;;;;18.20;3.75;;;5.70;99.90;;;;;;5074371;28;20482;-49
2022/01/31 08:53:35;;;;;;;15.13;2.55;;;5.70;99.90;;;;;;5073013;28;20070;-47
2022/01/31 08:56:05;;;;;;;15.15;3.13;;;5.80;99.90;;;;;;5064503;28;20193;-48
2022/01/31 08:58:31;;;;;;;11.63;2.13;;;5.90;99.90;;;;;;5071025;28;20063;-48
2022/01/31 09:01:05;;;;;;;17.42;3.70;;;5.90;99.90;;;;;;5054731;28;20057;-50
2022/01/31 09:06:08;;;;;;;10.60;2.30;;;6.00;99.90;;;;;;5063160;28;19924;-48
2022/01/31 09:08:35;;;;;;;13.35;2.60;;;6.10;99.90;;;;;;5068291;28;20044;-48
2022/01/31 09:11:00;;;;;;;20.58;3.28;;;6.10;99.90;;;;;;5070254;28;20050;-47
2022/01/31 09:13:26;;;;;;;11.48;2.60;;;6.10;99.90;;;;;;5053870;28;20102;-48
2022/01/31 09:15:52;;;;;;;14.93;2.33;;;6.20;99.90;;;;;;5046933;28;20056;-48
2022/01/31 09:18:18;;;;;;;16.55;2.85;;;6.20;99.90;;;;;;5074919;28;20050;-50
2022/01/31 09:20:44;;;;;;;15.00;2.55;;;6.20;99.90;;;;;;5076243;28;20036;-48
2022/01/31 09:23:10;;;;;;;14.55;3.13;;;6.20;99.90;;;;;;5042904;28;20229;-47
2022/01/31 09:25:43;;;;;;;11.20;1.88;;;6.30;99.90;;;;;;5062038;28;20048;-48
2022/01/31 09:28:10;;;;;;;7.70;2.13;;;6.40;99.90;;;;;;5082781;28;20051;-48
2022/01/31 09:30:36;;;;;;;11.15;1.80;;;6.40;99.90;;;;;;5076063;28;20083;-48
2022/01/31 09:33:02;;;;;;;14.15;2.85;;;6.50;99.90;;;;;;5076082;28;20044;-48
2022/01/31 09:35:28;;;;;;;13.25;2.00;;;6.50;99.90;;;;;;5073185;28;20512;-47
2022/01/31 09:37:54;;;;;;;13.25;2.47;;;6.60;99.90;;;;;;5076401;28;20044;-48
2022/01/31 09:40:22;;;;;;;13.13;2.28;;;6.60;99.90;;;;;;5058338;28;20064;-51
2022/01/31 09:43:09;;;;;;;14.45;2.30;;;6.60;99.90;;;;;;5073280;28;20055;-48
2022/01/31 09:48:35;;;;;;;12.90;2.33;;;6.60;99.90;;;;;;5077691;28;20090;-48
2022/01/31 09:51:07;;;;;;;20.85;3.75;;;6.60;99.90;;;;;;5058160;28;20064;-48
2022/01/31 09:53:37;;;;;;;15.38;2.45;;;6.70;99.90;;;;;;5081793;28;20044;-47
2022/01/31 09:56:11;;;;;;;11.43;2.03;;;6.80;99.90;;;;;;5074222;28;20048;-48
2022/01/31 09:58:39;;;;;;;14.68;2.78;;;6.90;99.90;;;;;;5081745;28;20414;-48
2022/01/31 10:01:32;;;;;;;14.60;2.85;;;6.90;99.90;;;;;;5056493;28;20510;-51
2022/01/31 10:04:14;;;;;;;21.77;2.85;;;6.90;99.90;;;;;;5060152;28;20071;-48
2022/01/31 10:06:43;;;;;;;13.93;2.92;;;6.90;99.90;;;;;;5075945;28;20044;-54
2022/01/31 10:09:18;;;;;;;12.02;2.88;;;6.80;99.90;;;;;;5076427;28;20056;-48
2022/01/31 10:11:56;;;;;;;22.83;3.40;;;6.90;99.90;;;;;;5079026;28;20048;-49
2022/01/31 10:17:27;;;;;;;20.17;3.25;;;6.90;99.90;;;;;;5072568;28;20075;-48
2022/01/31 10:19:56;;;;;;;18.42;2.92;;;7.00;99.90;;;;;;5077099;28;20503;-49
2022/01/31 10:22:23;;;;;;;16.23;3.38;;;7.00;99.90;;;;;;5071542;28;20143;-49
2022/01/31 10:24:52;;;;;;;24.92;3.67;;;7.10;99.90;;;;;;5052351;28;20104;-51
2022/01/31 10:27:22;;;;;;;16.95;2.85;;;7.10;99.90;;;;;;5056862;28;20589;-50
2022/01/31 10:29:50;;;;;;;13.23;2.53;;;7.00;99.90;;;;;;5068409;28;20537;-48
2022/01/31 10:32:24;;;;;;;20.63;3.92;;;7.10;99.90;;;;;;5077789;28;20469;-49
2022/01/31 10:35:00;;;;;;;15.13;2.78;;;7.20;99.90;;;;;;5060734;28;20125;-51
2022/01/31 10:37:29;;;;;;;20.08;2.35;;;7.20;99.90;;;;;;5080654;28;20048;-51
2022/01/31 10:54:12;;;;;;;7.78;1.30;;;7.20;99.90;;;;;;5076528;28;20671;-48
2022/01/31 10:56:48;;;;;;;9.90;1.30;;;7.20;99.90;;;;;;5039373;28;20056;-48
2022/01/31 10:59:37;;;;;;;9.38;1.42;;;7.10;99.90;;;;;;5058106;28;20411;-48
2022/01/31 11:02:06;;;;;;;6.07;1.20;;;7.00;99.90;;;;;;5051366;28;20068;-48
2022/01/31 11:04:37;;;;;;;6.63;1.35;;;6.90;99.90;;;;;;5067885;28;20048;-48
2022/01/31 11:07:16;;;;;;;4.40;0.90;;;6.80;99.90;;;;;;5054941;28;20414;-48
2022/01/31 11:09:45;;;;;;;6.85;1.88;;;6.80;99.90;;;;;;5079300;28;20496;-49
2022/01/31 11:12:11;;;;;;;6.70;1.63;;;6.80;99.90;;;;;;5056049;28;20063;-49
2022/01/31 11:14:39;;;;;;;8.10;2.03;;;6.80;99.90;;;;;;5072410;28;20122;-48
2022/01/31 11:17:12;;;;;;;10.52;1.67;;;6.80;99.90;;;;;;5048603;28;20433;-52
2022/01/31 11:19:41;;;;;;;8.68;1.70;;;6.70;99.90;;;;;;5050898;28;20059;-53
2022/01/31 11:22:10;;;;;;;14.63;2.63;;;6.70;99.90;;;;;;5072793;28;20123;-51
2022/01/31 11:24:46;;;;;;;20.05;2.53;;;6.80;99.90;;;;;;5066438;28;20048;-48
2022/01/31 11:27:32;;;;;;;12.65;2.60;;;6.80;99.90;;;;;;5057930;28;20097;-48
2022/01/31 11:30:00;;;;;;;18.88;4.55;;;6.90;99.90;;;;;;5076989;28;20518;-50
2022/01/31 11:32:27;;;;;;;21.35;4.18;;;7.00;99.90;;;;;;5062639;28;20137;-48
2022/01/31 11:34:55;;;;;;;25.67;4.72;;;7.00;99.90;;;;;;5052553;28;20051;-48
2022/01/31 11:37:22;;;;;;;25.70;6.88;;;7.10;99.90;;;;;;5059613;28;21540;-49
2022/01/31 11:39:55;;;;;;;27.33;5.18;;;7.20;99.90;;;;;;5072430;28;20052;-49
2022/01/31 11:42:21;;;;;;;28.98;5.18;;;7.30;99.90;;;;;;5063582;28;20083;-49
2022/01/31 11:44:59;;;;;;;33.58;6.82;;;7.50;99.90;;;;;;5079114;28;20051;-50
2022/01/31 11:47:27;;;;;;;31.60;6.53;;;7.70;99.90;;;;;;5072562;28;20538;-48
2022/01/31 11:49:56;;;;;;;27.70;5.10;;;7.70;99.90;;;;;;5061786;28;20646;-48
2022/01/31 11:52:24;;;;;;;30.17;5.57;;;7.70;99.90;;;;;;5058964;28;20052;-48
2022/01/31 11:54:54;;;;;;;25.80;4.47;;;7.80;99.90;;;;;;5055669;28;20194;-48
2022/01/31 11:57:27;;;;;;;32.92;6.28;;;7.80;99.90;;;;;;5054420;28;20048;-49
2022/01/31 12:00:08;;;;;;;24.63;5.18;;;7.80;99.90;;;;;;5054366;28;20052;-49
2022/01/31 12:02:41;;;;;;;25.10;3.95;;;7.60;99.90;;;;;;5057141;28;20580;-48
2022/01/31 12:05:29;;;;;;;23.00;4.22;;;7.60;99.90;;;;;;5038702;28;20093;-50
2022/01/31 12:08:17;;;;;;;20.35;3.88;;;7.60;99.90;;;;;;5069608;28;20055;-48
2022/01/31 12:10:47;;;;;;;21.42;4.57;;;7.60;99.90;;;;;;5077287;28;20423;-48
2022/01/31 12:13:46;;;;;;;25.60;4.53;;;7.60;99.90;;;;;;5061224;28;20052;-49
2022/01/31 12:22:00;;;;;;;25.77;4.85;;;8.00;99.90;;;;;;4980927;28;20058;-49
2022/01/31 12:24:38;;;;;;;16.10;3.70;;;8.10;99.90;;;;;;4974875;28;20080;-50
2022/01/31 12:27:16;;;;;;;15.75;3.80;;;8.10;99.90;;;;;;4991016;28;20579;-50
2022/01/31 12:29:52;;;;;;;17.25;3.28;;;8.10;99.90;;;;;;4955130;28;20066;-49
2022/01/31 12:32:40;;;;;;;23.48;3.50;;;8.10;99.90;;;;;;4987256;28;20565;-51
2022/01/31 12:35:11;;;;;;;20.38;3.17;;;8.10;99.90;;;;;;4987505;28;20539;-48
2022/01/31 12:37:51;;;;;;;20.60;3.80;;;8.10;99.90;;;;;;4996043;28;20100;-49
2022/01/31 12:40:33;;;;;;;18.08;2.97;;;8.10;99.90;;;;;;4971318;28;20058;-48
2022/01/31 12:45:40;;;;;;;17.98;3.50;;;8.00;99.90;;;;;;4982407;28;20058;-50
2022/01/31 12:48:09;;;;;;;17.15;3.28;;;8.00;99.90;;;;;;4982373;28;20084;-49
2022/01/31 12:50:53;;;;;;;15.27;3.03;;;8.10;99.90;;;;;;4998413;28;20233;-48
2022/01/31 12:53:26;;;;;;;27.02;5.28;;;8.10;99.90;;;;;;4964768;28;20074;-49
2022/01/31 12:56:02;;;;;;;19.10;4.13;;;8.10;99.90;;;;;;5024058;28;20056;-48
2022/01/31 12:58:33;;;;;;;32.58;5.35;;;8.00;99.90;;;;;;5067243;28;20048;-48
2022/01/31 13:01:15;;;;;;;30.10;4.80;;;8.00;99.90;;;;;;5067075;28;20115;-48
2022/01/31 13:03:46;;;;;;;28.77;4.72;;;7.90;99.90;;;;;;5073768;28;20438;-48
2022/01/31 13:06:33;;;;;;;30.35;6.45;;;7.80;99.90;;;;;;5070864;28;20517;-49
2022/01/31 13:09:20;;;;;;;31.67;5.75;;;7.80;99.90;;;;;;5077619;28;20416;-51
2022/01/31 13:11:57;;;;;;;32.58;6.32;;;7.70;99.90;;;;;;5063750;28;20087;-51
2022/01/31 13:14:26;;;;;;;28.85;6.05;;;7.80;99.90;;;;;;5059845;28;20497;-49
2022/01/31 13:17:08;;;;;;;31.27;7.07;;;7.80;99.90;;;;;;5069850;28;20049;-49
2022/01/31 13:19:40;;;;;;;26.85;5.78;;;7.80;99.90;;;;;;5066762;28;20052;-49
2022/01/31 13:22:14;;;;;;;30.83;6.80;;;7.80;99.90;;;;;;5070466;28;20063;-49
2022/01/31 13:24:47;;;;;;;28.17;5.28;;;7.80;99.90;;;;;;5051837;28;20516;-51
2022/01/31 13:27:16;;;;;;;31.63;6.03;;;7.70;99.90;;;;;;5052652;28;20585;-48
2022/01/31 13:29:48;;;;;;;28.08;5.60;;;7.70;99.90;;;;;;5064908;28;20151;-49
2022/01/31 13:32:24;;;;;;;31.45;5.57;;;7.70;99.90;;;;;;5074913;28;20044;-48
2022/01/31 13:34:56;;;;;;;26.05;5.40;;;7.70;99.90;;;;;;5078097;28;20146;-49